Time;durP1;ratioP1;P1;durP2;ratioP2;P2;SDS_P1;SDS_P2;PMS_P1;PMS_P2;Temp;Humidity;BMP_temperature;BMP_pressure;BME280_temperature;BME280_humidity;BME280_pressure;Samples;Min_cycle;Max_cycle;Signal;HPM_P1;HPM_P2
2022/11/30 00:01:15;;;;;;;85.97;45.22;;;6.90;99.90;;;;;;5016866;28;20180;-74
2022/11/30 00:03:41;;;;;;;73.88;42.83;;;7.00;99.90;;;;;;5017385;28;20057;-74
2022/11/30 00:06:09;;;;;;;87.22;45.08;;;6.90;99.90;;;;;;5016589;28;20107;-74
2022/11/30 00:08:34;;;;;;;82.57;44.05;;;7.10;99.90;;;;;;5017881;28;20046;-74
2022/11/30 00:11:10;;;;;;;94.40;45.67;;;6.90;99.90;;;;;;4999791;28;20057;-74
2022/11/30 00:13:36;;;;;;;88.07;44.53;;;7.00;99.90;;;;;;4999713;28;20053;-73
2022/11/30 00:16:01;;;;;;;87.40;44.38;;;6.90;99.90;;;;;;5016762;28;20044;-74
2022/11/30 00:18:27;;;;;;;93.72;46.22;;;6.90;99.90;;;;;;4999585;28;20076;-74
2022/11/30 00:20:54;;;;;;;98.25;46.55;;;6.90;99.90;;;;;;5016103;28;20046;-74
2022/11/30 00:23:22;;;;;;;97.45;47.17;;;7.00;99.90;;;;;;5017097;28;20054;-74
2022/11/30 00:25:48;;;;;;;99.32;46.83;;;6.90;99.90;;;;;;5017137;28;20030;-74
2022/11/30 00:28:13;;;;;;;94.00;45.88;;;6.90;99.90;;;;;;4999451;28;20080;-74
2022/11/30 00:30:39;;;;;;;101.03;45.97;;;7.40;99.90;;;;;;5016796;28;20049;-74
2022/11/30 00:33:04;;;;;;;92.43;46.88;;;6.90;99.90;;;;;;4999266;28;20044;-74
2022/11/30 00:35:30;;;;;;;107.38;48.47;;;6.90;99.90;;;;;;5016603;28;20034;-74
2022/11/30 00:37:56;;;;;;;100.53;46.30;;;6.80;99.90;;;;;;5016711;28;20088;-74
2022/11/30 00:40:22;;;;;;;98.88;46.33;;;6.80;99.90;;;;;;5016394;28;20081;-74
2022/11/30 00:42:48;;;;;;;102.07;45.90;;;6.80;99.90;;;;;;4982558;28;20037;-74
2022/11/30 00:45:13;;;;;;;87.30;44.95;;;6.80;99.90;;;;;;5016563;28;20037;-73
2022/11/30 00:47:39;;;;;;;87.18;44.88;;;6.90;99.90;;;;;;5015667;28;20096;-74
2022/11/30 00:50:05;;;;;;;90.57;46.28;;;6.80;99.90;;;;;;5016331;28;20125;-73
2022/11/30 00:52:31;;;;;;;80.43;42.45;;;6.90;99.90;;;;;;4998788;28;20346;-74
2022/11/30 00:54:56;;;;;;;82.15;44.08;;;6.80;99.90;;;;;;5015931;28;20045;-74
2022/11/30 00:57:22;;;;;;;94.93;45.42;;;6.80;99.90;;;;;;5016323;28;20381;-74
2022/11/30 00:59:47;;;;;;;81.90;43.35;;;6.80;99.90;;;;;;4982744;28;20046;-74
2022/11/30 01:02:13;;;;;;;85.65;45.85;;;6.80;99.90;;;;;;4998808;28;20060;-74
2022/11/30 01:04:39;;;;;;;88.57;46.20;;;6.80;99.90;;;;;;5016135;28;20112;-74
2022/11/30 01:07:04;;;;;;;81.57;43.78;;;6.80;99.90;;;;;;5015892;28;20418;-73
2022/11/30 01:09:30;;;;;;;76.38;44.42;;;6.80;99.90;;;;;;4998239;28;20037;-74
2022/11/30 01:11:56;;;;;;;80.25;43.97;;;6.80;99.90;;;;;;5015993;28;20046;-74
2022/11/30 01:14:21;;;;;;;80.65;45.08;;;6.80;99.90;;;;;;4998852;28;20423;-74
2022/11/30 01:16:48;;;;;;;75.03;43.25;;;6.80;99.90;;;;;;5000661;28;20069;-74
2022/11/30 01:19:14;;;;;;;75.68;43.50;;;6.90;99.90;;;;;;5015685;28;20042;-74
2022/11/30 01:21:39;;;;;;;75.22;43.75;;;6.80;99.90;;;;;;4998709;28;20054;-74
2022/11/30 01:24:06;;;;;;;73.50;43.08;;;6.90;99.90;;;;;;5015708;28;20362;-73
2022/11/30 01:26:31;;;;;;;77.20;43.72;;;6.80;99.90;;;;;;5015696;28;20042;-74
2022/11/30 01:28:57;;;;;;;73.65;42.92;;;6.80;99.90;;;;;;4998564;28;20050;-75
2022/11/30 01:31:26;;;;;;;76.78;43.95;;;6.80;99.90;;;;;;5015210;28;20117;-74
2022/11/30 01:33:53;;;;;;;68.40;42.65;;;6.90;99.90;;;;;;5014882;28;20049;-74
2022/11/30 01:36:24;;;;;;;70.68;41.95;;;6.90;99.90;;;;;;4998052;28;20113;-74
2022/11/30 01:38:57;;;;;;;71.68;43.47;;;6.90;99.90;;;;;;5015275;28;20061;-75
2022/11/30 01:41:28;;;;;;;74.45;43.17;;;6.90;99.90;;;;;;5015445;28;20049;-74
2022/11/30 01:44:15;;;;;;;68.20;42.70;;;6.90;99.90;;;;;;5015764;28;20125;-74
2022/11/30 01:46:45;;;;;;;71.70;43.05;;;6.90;99.90;;;;;;4965565;28;20050;-74
2022/11/30 01:49:19;;;;;;;66.75;42.72;;;6.90;99.90;;;;;;5014266;28;20034;-74
2022/11/30 01:52:05;;;;;;;69.13;42.15;;;6.90;99.90;;;;;;5014735;28;20069;-74
2022/11/30 01:54:41;;;;;;;77.78;44.90;;;6.90;99.90;;;;;;5015347;28;20050;-74
2022/11/30 01:57:15;;;;;;;73.22;43.63;;;6.90;99.90;;;;;;4997814;28;20124;-74
2022/11/30 01:59:41;;;;;;;78.65;45.33;;;6.90;99.90;;;;;;5015175;28;20113;-74
2022/11/30 02:02:07;;;;;;;80.25;44.05;;;6.90;99.90;;;;;;5015148;28;20116;-74
2022/11/30 02:04:36;;;;;;;70.97;43.50;;;6.90;99.90;;;;;;5015226;28;20044;-74
2022/11/30 02:07:04;;;;;;;75.40;44.13;;;6.80;99.90;;;;;;5014849;28;20046;-74
2022/11/30 02:09:33;;;;;;;78.47;43.47;;;6.90;99.90;;;;;;5015427;28;20473;-75
2022/11/30 02:12:00;;;;;;;71.28;42.20;;;6.90;99.90;;;;;;5014813;28;20049;-74
2022/11/30 02:14:47;;;;;;;85.13;43.05;;;6.90;99.90;;;;;;5014870;28;20053;-75
2022/11/30 02:17:20;;;;;;;78.15;45.42;;;6.90;99.90;;;;;;5015207;28;20075;-74
2022/11/30 02:20:10;;;;;;;80.93;43.78;;;6.80;99.90;;;;;;4997229;28;20037;-74
2022/11/30 02:22:45;;;;;;;68.90;42.33;;;6.80;99.90;;;;;;4997397;28;20058;-73
2022/11/30 02:25:41;;;;;;;74.20;42.47;;;6.80;99.90;;;;;;5015181;28;20056;-74
2022/11/30 02:28:58;;;;;;;77.47;43.67;;;6.80;99.90;;;;;;4997314;28;20042;-75
2022/11/30 02:31:39;;;;;;;71.05;42.88;;;6.80;99.90;;;;;;4935351;29;20048;-74
2022/11/30 02:34:08;;;;;;;70.10;42.85;;;6.80;99.90;;;;;;4935282;29;20052;-74
2022/11/30 02:36:34;;;;;;;72.05;43.15;;;6.80;99.90;;;;;;4965069;28;20053;-75
2022/11/30 02:39:00;;;;;;;71.22;44.63;;;6.80;99.90;;;;;;5014816;28;20053;-75
2022/11/30 02:41:25;;;;;;;75.72;44.90;;;6.80;99.90;;;;;;5014834;28;20046;-74
2022/11/30 02:43:51;;;;;;;62.45;41.85;;;6.80;99.90;;;;;;4997232;28;20042;-74
2022/11/30 02:46:29;;;;;;;71.32;42.45;;;6.80;99.90;;;;;;5014982;28;20042;-74
2022/11/30 02:49:22;;;;;;;69.07;43.42;;;6.80;99.90;;;;;;5014515;28;20513;-74
2022/11/30 02:51:50;;;;;;;66.15;40.17;;;6.80;99.90;;;;;;5014817;28;20728;-74
2022/11/30 02:54:17;;;;;;;65.90;43.60;;;6.80;99.90;;;;;;5014544;28;20477;-74
2022/11/30 02:56:43;;;;;;;65.88;42.30;;;6.80;99.90;;;;;;4997182;28;20046;-74
2022/11/30 02:59:09;;;;;;;63.72;41.83;;;6.80;99.90;;;;;;4982038;28;20161;-75
2022/11/30 03:01:35;;;;;;;66.57;43.22;;;6.80;99.90;;;;;;5018554;28;20351;-75
2022/11/30 03:04:00;;;;;;;66.72;43.03;;;7.00;99.90;;;;;;5018318;28;20114;-74
2022/11/30 03:06:26;;;;;;;65.35;41.67;;;6.80;99.90;;;;;;4984696;28;20058;-75
2022/11/30 03:08:54;;;;;;;60.13;40.45;;;6.70;99.90;;;;;;5018102;28;20045;-74
2022/11/30 03:11:20;;;;;;;59.53;40.63;;;6.80;99.90;;;;;;5018219;28;20038;-74
2022/11/30 03:13:46;;;;;;;66.53;43.50;;;6.80;99.90;;;;;;4984713;28;20143;-74
2022/11/30 03:16:12;;;;;;;59.40;40.00;;;6.80;99.90;;;;;;5018389;28;20346;-75
2022/11/30 03:18:38;;;;;;;65.82;41.35;;;6.80;99.90;;;;;;5017795;28;20207;-75
2022/11/30 03:21:09;;;;;;;59.95;39.47;;;6.80;99.90;;;;;;5000205;28;20046;-74
2022/11/30 03:23:35;;;;;;;64.47;40.75;;;6.80;99.90;;;;;;5017773;28;20461;-75
2022/11/30 03:26:01;;;;;;;61.13;41.40;;;6.80;99.90;;;;;;5018058;28;20073;-75
2022/11/30 03:28:27;;;;;;;62.67;40.88;;;6.80;99.90;;;;;;5017981;28;20531;-74
2022/11/30 03:30:53;;;;;;;60.38;41.22;;;6.80;99.90;;;;;;5000633;28;20370;-75
2022/11/30 03:33:18;;;;;;;68.72;41.67;;;6.80;99.90;;;;;;5000161;28;20060;-74
2022/11/30 03:35:44;;;;;;;64.93;41.67;;;7.30;99.90;;;;;;5000204;28;20103;-75
2022/11/30 03:38:10;;;;;;;64.35;41.20;;;6.80;99.90;;;;;;5017533;28;20081;-74
2022/11/30 03:40:36;;;;;;;64.35;40.60;;;6.80;99.90;;;;;;5017522;28;20100;-75
2022/11/30 03:43:02;;;;;;;58.67;39.80;;;6.80;99.90;;;;;;5017620;28;20437;-75
2022/11/30 03:45:28;;;;;;;59.03;38.80;;;6.80;99.90;;;;;;5017578;28;20405;-75
2022/11/30 03:47:54;;;;;;;63.13;39.58;;;6.80;99.90;;;;;;5000434;28;20038;-74
2022/11/30 03:50:22;;;;;;;62.35;39.65;;;7.10;99.90;;;;;;5000536;28;20050;-74
2022/11/30 03:52:48;;;;;;;70.75;41.75;;;7.30;99.90;;;;;;5017464;28;20450;-74
2022/11/30 03:55:13;;;;;;;67.68;40.53;;;6.70;99.90;;;;;;4999881;28;20042;-75
2022/11/30 03:57:39;;;;;;;67.97;39.95;;;6.70;99.90;;;;;;5000374;28;20049;-74
2022/11/30 04:00:06;;;;;;;72.78;41.05;;;6.70;99.90;;;;;;4983651;28;20085;-75
2022/11/30 04:02:32;;;;;;;69.43;40.58;;;6.70;99.90;;;;;;5016866;28;20092;-74
2022/11/30 04:04:58;;;;;;;69.68;41.03;;;6.70;99.90;;;;;;5017225;28;20438;-74
2022/11/30 04:07:23;;;;;;;72.57;42.17;;;6.70;99.90;;;;;;5017357;28;20042;-74
2022/11/30 04:09:49;;;;;;;68.05;41.67;;;6.70;99.90;;;;;;5017116;28;20365;-75
2022/11/30 04:12:14;;;;;;;75.50;42.50;;;6.70;99.90;;;;;;5016763;28;20060;-74
2022/11/30 04:14:43;;;;;;;72.35;43.60;;;6.80;99.90;;;;;;5016983;28;20046;-75
2022/11/30 04:17:08;;;;;;;69.10;41.70;;;6.70;99.90;;;;;;4999358;28;20046;-74
2022/11/30 04:19:34;;;;;;;71.30;41.92;;;6.70;99.90;;;;;;5016838;28;20116;-74
2022/11/30 04:22:00;;;;;;;74.45;41.70;;;6.70;99.90;;;;;;5016380;28;20046;-74
2022/11/30 04:24:25;;;;;;;66.30;40.05;;;6.70;99.90;;;;;;4983895;28;20060;-74
2022/11/30 04:26:51;;;;;;;67.60;39.50;;;6.70;99.90;;;;;;5017012;28;20054;-74
2022/11/30 04:29:19;;;;;;;67.55;38.28;;;6.70;99.90;;;;;;5016669;28;20129;-74
2022/11/30 04:31:45;;;;;;;65.97;38.90;;;6.70;99.90;;;;;;5015991;28;20477;-75
2022/11/30 04:34:10;;;;;;;65.10;39.15;;;6.70;99.90;;;;;;5016302;28;20050;-74
2022/11/30 04:36:36;;;;;;;75.47;40.60;;;6.70;99.90;;;;;;5016450;28;20038;-73
2022/11/30 04:39:02;;;;;;;74.75;40.20;;;6.70;99.90;;;;;;4999086;28;20038;-74
2022/11/30 04:41:27;;;;;;;74.75;41.80;;;6.70;99.90;;;;;;5016473;28;20034;-75
2022/11/30 04:43:53;;;;;;;81.22;43.00;;;6.70;99.90;;;;;;4998989;28;20490;-74
2022/11/30 04:46:18;;;;;;;87.30;44.15;;;6.70;99.90;;;;;;5015848;28;20030;-75
2022/11/30 04:48:44;;;;;;;82.90;42.13;;;6.60;99.90;;;;;;5016118;28;20406;-75
2022/11/30 04:51:09;;;;;;;88.93;42.75;;;6.60;99.90;;;;;;4998973;28;20049;-74
2022/11/30 04:53:36;;;;;;;87.75;42.92;;;6.60;99.90;;;;;;4998725;28;20089;-74
2022/11/30 04:56:09;;;;;;;96.03;42.80;;;6.60;99.90;;;;;;4998860;28;20046;-74
2022/11/30 04:58:37;;;;;;;88.18;42.78;;;6.60;99.90;;;;;;5019169;28;20054;-74
2022/11/30 05:01:03;;;;;;;94.55;44.20;;;6.60;99.90;;;;;;5016563;28;20117;-74
2022/11/30 05:03:29;;;;;;;96.97;43.65;;;6.50;99.90;;;;;;5017142;28;20069;-72
2022/11/30 05:05:57;;;;;;;100.40;45.08;;;6.50;99.90;;;;;;5015197;28;20049;-73
2022/11/30 05:08:25;;;;;;;98.93;43.75;;;6.50;99.90;;;;;;5015538;28;20056;-74
2022/11/30 05:10:52;;;;;;;96.03;43.85;;;6.50;99.90;;;;;;5016017;28;20121;-73
2022/11/30 05:13:18;;;;;;;93.25;43.85;;;6.50;99.90;;;;;;5015717;28;20128;-74
2022/11/30 05:15:44;;;;;;;85.18;42.80;;;6.50;99.90;;;;;;5015900;28;20494;-74
2022/11/30 05:18:10;;;;;;;93.65;43.15;;;6.50;99.90;;;;;;5016019;28;20038;-74
2022/11/30 05:20:35;;;;;;;86.78;42.10;;;6.60;99.90;;;;;;4998231;28;20046;-75
2022/11/30 05:23:01;;;;;;;105.07;44.22;;;6.60;99.90;;;;;;5014743;28;20069;-74
2022/11/30 05:25:27;;;;;;;99.15;44.78;;;6.60;99.90;;;;;;5015716;28;20045;-73
2022/11/30 05:27:52;;;;;;;97.53;43.30;;;6.50;99.90;;;;;;5015620;28;20081;-75
2022/11/30 05:30:18;;;;;;;95.55;46.05;;;6.60;99.90;;;;;;5014441;28;20045;-75
2022/11/30 05:32:44;;;;;;;87.88;41.55;;;6.50;99.90;;;;;;4998162;28;20374;-75
2022/11/30 05:35:09;;;;;;;87.93;42.30;;;6.60;99.90;;;;;;5015192;28;20117;-75
2022/11/30 05:37:35;;;;;;;87.18;42.25;;;6.60;99.90;;;;;;5015409;28;20050;-75
2022/11/30 05:40:01;;;;;;;91.68;42.60;;;6.60;99.90;;;;;;5015451;28;20026;-75
2022/11/30 05:42:27;;;;;;;82.28;40.17;;;6.60;99.90;;;;;;5015408;28;20042;-75
2022/11/30 05:44:52;;;;;;;75.75;39.53;;;6.50;99.90;;;;;;4997736;28;20053;-74
2022/11/30 05:47:18;;;;;;;83.78;39.53;;;6.50;99.90;;;;;;4998103;28;20042;-75
2022/11/30 05:49:43;;;;;;;91.15;40.90;;;6.60;99.90;;;;;;5014921;28;20034;-74
2022/11/30 05:52:09;;;;;;;83.10;39.80;;;6.50;99.90;;;;;;4997385;28;20050;-74
2022/11/30 05:54:35;;;;;;;83.90;42.10;;;6.50;99.90;;;;;;5014472;28;20050;-75
2022/11/30 05:57:01;;;;;;;83.53;40.63;;;6.50;99.90;;;;;;4997426;28;20431;-75
2022/11/30 05:59:26;;;;;;;92.55;41.75;;;7.10;99.90;;;;;;5015191;28;20049;-75
2022/11/30 06:01:52;;;;;;;85.70;40.85;;;6.50;99.90;;;;;;5014885;28;20056;-75
2022/11/30 06:04:17;;;;;;;83.00;39.67;;;6.80;99.90;;;;;;5015307;28;20069;-74
2022/11/30 06:06:43;;;;;;;84.22;41.35;;;6.50;99.90;;;;;;5015249;28;20504;-75
2022/11/30 06:09:09;;;;;;;87.05;40.58;;;6.50;99.90;;;;;;5015326;28;20056;-75
2022/11/30 06:11:34;;;;;;;86.30;41.58;;;6.50;99.90;;;;;;5015115;28;20038;-74
2022/11/30 06:14:00;;;;;;;85.57;41.42;;;6.40;99.90;;;;;;4997993;28;20050;-74
2022/11/30 06:16:26;;;;;;;85.35;40.95;;;6.40;99.90;;;;;;5015092;28;20466;-75
2022/11/30 06:18:52;;;;;;;80.65;40.85;;;6.40;99.90;;;;;;4981207;28;20182;-75
2022/11/30 06:21:17;;;;;;;90.32;40.03;;;6.70;99.90;;;;;;5014647;28;20062;-74
2022/11/30 06:23:43;;;;;;;83.85;40.25;;;6.40;99.90;;;;;;5015038;28;20373;-75
2022/11/30 06:26:11;;;;;;;84.57;39.45;;;6.40;99.90;;;;;;5014843;28;20052;-75
2022/11/30 06:28:37;;;;;;;80.97;38.90;;;6.40;99.90;;;;;;4997331;28;20042;-75
2022/11/30 06:31:05;;;;;;;76.03;38.40;;;6.40;99.90;;;;;;5014959;28;20037;-75
2022/11/30 06:33:31;;;;;;;80.00;38.38;;;6.40;99.90;;;;;;5014758;28;20117;-75
2022/11/30 06:35:57;;;;;;;70.43;36.22;;;6.40;99.90;;;;;;5018690;28;20038;-75
2022/11/30 06:38:24;;;;;;;73.63;37.15;;;6.40;99.90;;;;;;5018747;28;20446;-75
2022/11/30 06:40:50;;;;;;;72.32;36.85;;;6.40;99.90;;;;;;5018137;28;20120;-75
2022/11/30 06:43:18;;;;;;;69.20;35.83;;;6.40;99.90;;;;;;5018615;28;20462;-75
2022/11/30 06:45:45;;;;;;;57.83;31.90;;;6.40;99.90;;;;;;5018829;28;20037;-75
2022/11/30 06:48:12;;;;;;;60.78;34.25;;;6.40;99.90;;;;;;5018169;28;20409;-75
2022/11/30 06:50:37;;;;;;;56.53;33.00;;;6.40;99.90;;;;;;5001041;28;20128;-75
2022/11/30 06:53:03;;;;;;;52.50;31.38;;;6.30;99.90;;;;;;5018505;28;20136;-74
2022/11/30 06:55:31;;;;;;;55.13;31.52;;;6.30;99.90;;;;;;5018035;28;20088;-75
2022/11/30 06:58:07;;;;;;;47.92;29.75;;;6.30;99.90;;;;;;5018706;28;20081;-75
2022/11/30 07:00:34;;;;;;;54.03;30.80;;;6.40;99.90;;;;;;5000937;28;20038;-75
2022/11/30 07:02:59;;;;;;;51.13;32.17;;;6.70;99.90;;;;;;5018413;28;20038;-75
2022/11/30 07:05:25;;;;;;;47.72;29.90;;;6.30;99.90;;;;;;5018418;28;20442;-75
2022/11/30 07:07:51;;;;;;;48.65;30.77;;;6.40;99.90;;;;;;5018286;28;20089;-74
2022/11/30 07:10:21;;;;;;;50.55;30.20;;;6.40;99.90;;;;;;5017947;28;20041;-75
2022/11/30 07:12:47;;;;;;;47.72;29.95;;;6.30;99.90;;;;;;5018066;28;20042;-75
2022/11/30 07:15:13;;;;;;;46.55;29.60;;;6.30;99.90;;;;;;5000867;28;20049;-75
2022/11/30 07:17:39;;;;;;;43.38;28.30;;;6.30;99.90;;;;;;5017748;28;20041;-75
2022/11/30 07:20:05;;;;;;;44.70;28.88;;;6.30;99.90;;;;;;5017935;28;20034;-75
2022/11/30 07:22:31;;;;;;;44.17;28.45;;;6.30;99.90;;;;;;5017452;28;20058;-75
2022/11/30 07:27:40;;;;;;;41.25;27.30;;;6.40;99.90;;;;;;5017849;28;20054;-75
2022/11/30 07:30:07;;;;;;;42.28;27.23;;;6.30;99.90;;;;;;5018015;28;20046;-75
2022/11/30 07:32:32;;;;;;;34.25;24.25;;;6.30;99.90;;;;;;5018007;28;20128;-75
2022/11/30 07:34:58;;;;;;;37.38;25.83;;;6.30;99.90;;;;;;5018010;28;20084;-75
2022/11/30 07:37:23;;;;;;;37.78;25.30;;;6.30;99.90;;;;;;5017846;28;20046;-75
2022/11/30 07:39:49;;;;;;;34.50;24.60;;;6.60;99.90;;;;;;5017467;28;20060;-75
2022/11/30 07:42:16;;;;;;;36.17;24.17;;;6.30;99.90;;;;;;5017522;28;20038;-75
2022/11/30 07:44:44;;;;;;;35.53;24.83;;;6.30;99.90;;;;;;5016470;28;20041;-75
2022/11/30 07:47:10;;;;;;;33.10;23.77;;;6.30;99.90;;;;;;4999176;28;20038;-75
2022/11/30 07:49:37;;;;;;;33.00;23.20;;;6.60;99.90;;;;;;5017449;28;20396;-75
2022/11/30 07:52:04;;;;;;;29.10;22.55;;;6.30;99.90;;;;;;5017302;28;20115;-75
2022/11/30 07:54:30;;;;;;;34.00;22.90;;;6.30;99.90;;;;;;4999884;28;20065;-75
2022/11/30 07:56:55;;;;;;;28.55;22.73;;;6.30;99.90;;;;;;5000451;28;20050;-75
2022/11/30 07:59:21;;;;;;;31.98;23.45;;;6.30;99.90;;;;;;5000362;28;20057;-75
2022/11/30 08:01:49;;;;;;;29.48;22.48;;;6.30;99.90;;;;;;5016908;28;20046;-75
2022/11/30 08:04:15;;;;;;;29.92;23.13;;;6.30;99.90;;;;;;5016978;28;20065;-75
2022/11/30 08:06:40;;;;;;;29.95;23.70;;;6.30;99.90;;;;;;5017003;28;20524;-75
2022/11/30 08:09:06;;;;;;;29.70;23.40;;;6.30;99.90;;;;;;5016971;28;20060;-75
2022/11/30 08:11:33;;;;;;;32.17;25.13;;;6.30;99.90;;;;;;5017011;28;20050;-75
2022/11/30 08:14:00;;;;;;;32.58;24.50;;;6.40;99.90;;;;;;5017123;28;20052;-75
2022/11/30 08:16:28;;;;;;;31.15;24.67;;;6.30;99.90;;;;;;5016565;28;20065;-75
2022/11/30 08:18:55;;;;;;;31.98;25.50;;;6.30;99.90;;;;;;4999140;28;20056;-75
2022/11/30 08:21:21;;;;;;;32.10;25.67;;;6.50;99.90;;;;;;5016319;28;20058;-75
2022/11/30 08:23:58;;;;;;;31.15;25.02;;;6.30;99.90;;;;;;4999268;28;20323;-75
2022/11/30 08:26:27;;;;;;;34.38;26.10;;;6.30;99.90;;;;;;5016759;28;20033;-75
2022/11/30 08:28:53;;;;;;;33.60;24.90;;;6.30;99.90;;;;;;5016754;28;20159;-75
2022/11/30 08:31:21;;;;;;;35.13;26.38;;;6.30;99.90;;;;;;5016417;28;20052;-75
2022/11/30 08:33:47;;;;;;;36.22;29.00;;;6.40;99.90;;;;;;5016160;28;20038;-74
2022/11/30 08:36:16;;;;;;;32.92;26.42;;;6.40;99.90;;;;;;5016316;28;20463;-75
2022/11/30 08:38:46;;;;;;;38.80;30.42;;;6.30;99.90;;;;;;4999638;28;20375;-75
2022/11/30 08:41:14;;;;;;;81.70;64.38;;;6.40;99.90;;;;;;5016472;28;20050;-75
2022/11/30 08:43:40;;;;;;;38.30;32.28;;;6.40;99.90;;;;;;5016380;28;20339;-75
2022/11/30 08:46:09;;;;;;;37.90;29.30;;;6.40;99.90;;;;;;5016120;28;20041;-75
2022/11/30 08:48:35;;;;;;;44.10;36.28;;;6.40;99.90;;;;;;5016003;28;20065;-75
2022/11/30 08:51:06;;;;;;;41.20;31.30;;;6.40;99.90;;;;;;5016264;28;20382;-75
2022/11/30 08:53:33;;;;;;;35.50;27.75;;;6.40;99.90;;;;;;5016400;28;20037;-75
2022/11/30 08:56:04;;;;;;;32.35;26.33;;;6.50;99.90;;;;;;5016411;28;20045;-75
2022/11/30 08:58:32;;;;;;;38.38;31.98;;;6.40;99.90;;;;;;5016164;28;20034;-75
2022/11/30 09:01:24;;;;;;;35.65;28.42;;;6.50;99.90;;;;;;4998696;28;20041;-75
2022/11/30 09:03:54;;;;;;;32.83;25.65;;;6.40;99.90;;;;;;5012220;28;20088;-75
2022/11/30 09:06:27;;;;;;;35.10;27.27;;;6.80;99.90;;;;;;5015118;28;20045;-75
2022/11/30 09:08:57;;;;;;;38.10;27.73;;;6.40;99.90;;;;;;5016014;28;20457;-75
2022/11/30 09:11:27;;;;;;;33.47;26.60;;;6.40;99.90;;;;;;5015873;28;20034;-75
2022/11/30 09:13:55;;;;;;;33.90;26.50;;;6.40;99.90;;;;;;5015831;28;20034;-75
2022/11/30 09:16:21;;;;;;;35.60;26.95;;;6.40;99.90;;;;;;5015960;28;20061;-75
2022/11/30 09:18:48;;;;;;;34.17;27.50;;;6.40;99.90;;;;;;4981984;28;20034;-75
2022/11/30 09:21:16;;;;;;;39.50;28.13;;;6.50;99.90;;;;;;5015247;28;20518;-75
2022/11/30 09:23:42;;;;;;;35.50;27.50;;;6.70;99.90;;;;;;5015534;28;20057;-75
2022/11/30 09:26:10;;;;;;;36.78;27.48;;;6.50;99.90;;;;;;5016063;28;20054;-75
2022/11/30 09:28:37;;;;;;;38.67;28.05;;;6.50;99.90;;;;;;5015589;28;20466;-75
2022/11/30 09:31:10;;;;;;;37.47;27.80;;;7.00;99.90;;;;;;5015678;28;20056;-75
2022/11/30 09:33:36;;;;;;;41.13;28.83;;;6.50;99.90;;;;;;5015509;28;20054;-75
2022/11/30 09:36:04;;;;;;;37.80;28.98;;;6.50;99.90;;;;;;5015523;28;20314;-75
2022/11/30 09:38:30;;;;;;;39.78;29.40;;;6.50;99.90;;;;;;5015888;28;20386;-75
2022/11/30 09:41:04;;;;;;;37.03;29.42;;;6.50;99.90;;;;;;5015178;28;20045;-75
2022/11/30 09:43:53;;;;;;;40.55;29.02;;;6.60;99.90;;;;;;4982024;28;20046;-75
2022/11/30 09:46:24;;;;;;;39.70;28.67;;;6.60;99.90;;;;;;5015445;28;20358;-75
2022/11/30 09:49:00;;;;;;;41.47;30.00;;;6.60;99.90;;;;;;5014938;28;20482;-75
2022/11/30 09:51:34;;;;;;;41.67;31.08;;;6.60;99.90;;;;;;5014746;28;20049;-75
2022/11/30 09:54:07;;;;;;;41.08;29.48;;;6.60;99.90;;;;;;5015350;28;20043;-75
2022/11/30 09:56:38;;;;;;;42.20;29.58;;;6.60;99.90;;;;;;5015357;28;20042;-75
2022/11/30 09:59:28;;;;;;;40.15;30.55;;;6.60;99.90;;;;;;5014828;28;20514;-75
2022/11/30 10:02:12;;;;;;;39.67;28.98;;;6.70;99.90;;;;;;5014995;28;20042;-75
2022/11/30 10:04:38;;;;;;;41.15;30.50;;;6.70;99.90;;;;;;5014951;28;20046;-75
2022/11/30 10:07:41;;;;;;;39.45;29.80;;;6.80;99.90;;;;;;4998275;28;20053;-75
2022/11/30 10:10:23;;;;;;;42.88;29.73;;;6.80;99.90;;;;;;5020466;28;20111;-75
2022/11/30 10:13:22;;;;;;;40.90;29.48;;;6.80;99.90;;;;;;5021901;28;20362;-75
2022/11/30 10:16:13;;;;;;;40.95;29.42;;;6.90;99.90;;;;;;5014914;28;20171;-75
2022/11/30 10:19:14;;;;;;;40.33;27.85;;;6.90;99.90;;;;;;5009935;28;20053;-75
2022/11/30 10:22:04;;;;;;;43.90;32.60;;;6.90;99.90;;;;;;5021074;28;20045;-75
2022/11/30 10:25:03;;;;;;;42.28;31.10;;;6.80;99.90;;;;;;5003807;28;20042;-75
2022/11/30 10:27:49;;;;;;;51.80;36.40;;;6.80;99.90;;;;;;5021455;28;20030;-75
2022/11/30 10:30:21;;;;;;;56.28;35.42;;;6.80;99.90;;;;;;5021779;28;20324;-75
2022/11/30 10:32:52;;;;;;;57.90;40.47;;;6.80;99.90;;;;;;5003536;28;20465;-75
2022/11/30 10:35:33;;;;;;;41.80;30.60;;;6.80;99.90;;;;;;5021960;28;20042;-75
2022/11/30 10:38:08;;;;;;;55.13;34.70;;;6.80;99.90;;;;;;5021685;28;20042;-75
2022/11/30 10:40:39;;;;;;;54.38;38.15;;;6.80;99.90;;;;;;4988034;28;20120;-75
2022/11/30 10:43:20;;;;;;;41.15;30.05;;;6.80;99.90;;;;;;5021887;28;20046;-75
2022/11/30 10:45:50;;;;;;;42.22;31.05;;;6.80;99.90;;;;;;5004102;28;20057;-75
2022/11/30 10:48:18;;;;;;;61.08;42.95;;;6.90;99.90;;;;;;5021203;28;20052;-75
2022/11/30 10:50:44;;;;;;;54.40;37.08;;;6.90;99.90;;;;;;5021060;28;20431;-75
2022/11/30 10:53:11;;;;;;;43.63;31.13;;;6.80;99.90;;;;;;5021233;28;20117;-75
2022/11/30 10:55:51;;;;;;;42.63;29.77;;;6.80;99.90;;;;;;5021353;28;20402;-75
2022/11/30 10:58:39;;;;;;;38.28;29.42;;;6.90;99.90;;;;;;5021367;28;20450;-75
2022/11/30 11:01:24;;;;;;;42.53;30.90;;;6.80;99.90;;;;;;5021894;28;20046;-75
2022/11/30 11:04:04;;;;;;;40.15;31.42;;;7.00;99.90;;;;;;5020984;28;20347;-75
2022/11/30 11:06:31;;;;;;;43.83;34.60;;;6.80;99.90;;;;;;5021152;28;20062;-75
2022/11/30 11:08:57;;;;;;;41.15;31.55;;;6.80;99.90;;;;;;5021303;28;20374;-75
2022/11/30 11:11:34;;;;;;;41.95;32.35;;;6.80;99.90;;;;;;5021318;28;20057;-76
2022/11/30 11:14:29;;;;;;;43.95;34.10;;;6.80;99.90;;;;;;5021231;28;20057;-75
2022/11/30 11:16:59;;;;;;;37.25;28.75;;;6.80;99.90;;;;;;5004504;28;20108;-75
2022/11/30 11:19:41;;;;;;;39.72;28.88;;;6.80;99.90;;;;;;5021101;28;20050;-75
2022/11/30 11:22:21;;;;;;;39.78;29.85;;;6.90;99.90;;;;;;5017837;28;20054;-75
2022/11/30 11:24:49;;;;;;;41.38;30.08;;;6.80;99.90;;;;;;5017812;28;20049;-75
2022/11/30 11:27:30;;;;;;;38.78;29.73;;;7.50;99.90;;;;;;5017788;28;20042;-75
2022/11/30 11:30:26;;;;;;;39.90;29.35;;;6.80;99.90;;;;;;5017802;28;20041;-75
2022/11/30 11:33:00;;;;;;;37.85;28.23;;;6.80;99.90;;;;;;5017448;28;20088;-75
2022/11/30 11:35:42;;;;;;;40.53;29.67;;;6.90;99.90;;;;;;5017612;28;20033;-75
2022/11/30 11:38:26;;;;;;;37.60;29.23;;;6.90;99.90;;;;;;5000028;28;20030;-75
2022/11/30 11:40:58;;;;;;;40.38;29.23;;;7.00;99.90;;;;;;5017489;28;20049;-75
2022/11/30 11:43:31;;;;;;;42.38;30.48;;;7.00;99.90;;;;;;5016948;28;20097;-74
2022/11/30 11:46:10;;;;;;;41.35;30.88;;;7.00;99.90;;;;;;5017393;28;20030;-75
2022/11/30 11:48:40;;;;;;;42.50;31.95;;;6.90;99.90;;;;;;5017226;28;20168;-75
2022/11/30 11:51:08;;;;;;;47.70;33.65;;;6.90;99.90;;;;;;5000200;28;20057;-75
2022/11/30 11:53:37;;;;;;;44.50;32.78;;;6.90;99.90;;;;;;5017430;28;20192;-75
2022/11/30 11:56:13;;;;;;;44.65;32.88;;;6.80;99.90;;;;;;5016953;28;20041;-75
2022/11/30 11:58:47;;;;;;;48.03;34.38;;;6.80;99.90;;;;;;5016986;28;20052;-74
2022/11/30 12:01:32;;;;;;;45.47;33.38;;;6.80;99.90;;;;;;5017755;28;20144;-75
2022/11/30 12:04:31;;;;;;;49.75;35.72;;;6.80;99.90;;;;;;5015942;28;20421;-75
2022/11/30 12:07:01;;;;;;;50.40;35.42;;;6.80;99.90;;;;;;4983587;28;20053;-75
2022/11/30 12:09:32;;;;;;;48.97;34.88;;;6.90;99.90;;;;;;4999899;28;20046;-75
2022/11/30 12:11:58;;;;;;;48.90;34.08;;;6.70;99.90;;;;;;5017208;28;20045;-75
2022/11/30 12:14:29;;;;;;;49.25;35.85;;;6.70;99.90;;;;;;5017128;28;20056;-75
2022/11/30 12:17:15;;;;;;;49.28;35.08;;;6.70;99.90;;;;;;5016952;28;20101;-75
2022/11/30 12:20:00;;;;;;;52.15;36.40;;;6.70;99.90;;;;;;4999889;28;20045;-75
2022/11/30 12:22:34;;;;;;;52.95;36.28;;;6.80;99.90;;;;;;5017006;28;20069;-75
2022/11/30 12:25:26;;;;;;;52.10;34.80;;;6.70;99.90;;;;;;5016791;28;20057;-75
2022/11/30 12:28:05;;;;;;;54.80;38.08;;;6.80;99.90;;;;;;5016817;28;20045;-75
2022/11/30 12:30:43;;;;;;;55.20;37.00;;;6.80;99.90;;;;;;5016642;28;20056;-75
2022/11/30 12:33:37;;;;;;;55.13;36.55;;;6.70;99.90;;;;;;5015733;28;20046;-76
2022/11/30 12:36:30;;;;;;;55.70;37.75;;;6.80;99.90;;;;;;5016571;28;20107;-75
2022/11/30 12:39:34;;;;;;;56.72;39.65;;;6.80;99.90;;;;;;5016862;28;20370;-76
2022/11/30 12:42:14;;;;;;;55.30;37.92;;;6.80;99.90;;;;;;5011843;28;20050;-76
2022/11/30 12:45:03;;;;;;;55.78;38.78;;;6.80;99.90;;;;;;5016329;28;20054;-74
2022/11/30 12:47:47;;;;;;;56.88;38.70;;;6.80;99.90;;;;;;4998942;28;20069;-75
2022/11/30 12:50:24;;;;;;;;;;;6.80;99.90;;;;;;5016666;28;20046;-75
2022/11/30 12:52:55;;;;;;;54.60;39.17;;;6.80;99.90;;;;;;5016199;28;19960;-75
2022/11/30 12:55:24;;;;;;;53.90;38.42;;;6.80;99.90;;;;;;5016222;28;20072;-75
2022/11/30 12:58:15;;;;;;;52.35;37.70;;;6.80;99.90;;;;;;5016030;28;20442;-75